createdAt,value
2022-11-26T00:04:52.756Z,10.10
2022-11-26T00:09:55.985Z,10.20
2022-11-26T00:15:00.573Z,10.00
2022-11-26T00:20:03.083Z,10.00
2022-11-26T00:25:06.023Z,10.10
2022-11-26T00:30:25.270Z,10.10
2022-11-26T00:35:27.673Z,10.10
2022-11-26T00:40:33.896Z,10.00
2022-11-26T00:45:36.231Z,9.80
2022-11-26T00:50:41.961Z,10.00
2022-11-26T00:55:47.354Z,9.90
2022-11-26T01:00:50.176Z,9.90
2022-11-26T01:05:58.715Z,9.90
2022-11-26T01:11:02.977Z,9.90
2022-11-26T01:16:20.152Z,9.90
2022-11-26T01:21:24.417Z,9.90
2022-11-26T01:26:32.296Z,9.90
2022-11-26T01:31:34.742Z,10.00
2022-11-26T01:36:40.134Z,9.80
2022-11-26T01:41:54.344Z,9.90
2022-11-26T01:46:57.929Z,9.90
2022-11-26T01:52:21.119Z,9.80
2022-11-26T01:57:28.674Z,9.80
2022-11-26T02:02:31.117Z,9.80
2022-11-26T02:07:34.792Z,9.80
2022-11-26T02:12:38.029Z,9.80
2022-11-26T02:18:01.332Z,9.70
2022-11-26T02:23:28.901Z,9.70
2022-11-26T02:29:10.160Z,9.70
2022-11-26T02:34:23.758Z,9.80
2022-11-26T02:39:28.781Z,9.40
2022-11-26T02:44:44.586Z,9.40
2022-11-26T02:49:49.518Z,9.30
2022-11-26T02:54:53.357Z,9.40
2022-11-26T02:59:56.054Z,9.40
2022-11-26T03:05:01.680Z,9.30
2022-11-26T03:10:04.768Z,9.40
2022-11-26T03:15:08.034Z,9.30
2022-11-26T03:20:10.972Z,9.40
2022-11-26T03:25:13.645Z,9.40
2022-11-26T03:30:16.171Z,9.50
2022-11-26T03:35:18.754Z,9.50
2022-11-26T03:40:21.024Z,9.50
2022-11-26T03:45:23.724Z,9.30
2022-11-26T03:50:26.205Z,9.30
2022-11-26T03:55:28.476Z,9.20
2022-11-26T04:00:30.755Z,8.90
2022-11-26T04:05:33.050Z,9.00
2022-11-26T04:10:35.395Z,9.00
2022-11-26T04:15:37.688Z,8.90
2022-11-26T04:20:39.993Z,9.00
2022-11-26T04:25:42.326Z,9.00
2022-11-26T04:30:44.642Z,9.10
2022-11-26T04:35:47.104Z,9.10
2022-11-26T04:40:49.545Z,9.00
2022-11-26T04:45:52.017Z,9.00
2022-11-26T04:50:54.302Z,9.00
2022-11-26T04:55:56.632Z,9.00
2022-11-26T05:00:58.969Z,9.00
2022-11-26T05:06:01.360Z,8.90
2022-11-26T05:11:03.733Z,8.80
2022-11-26T05:16:06.374Z,8.90
2022-11-26T05:21:08.699Z,8.80
2022-11-26T05:26:11.010Z,8.80
2022-11-26T05:31:13.843Z,8.80
2022-11-26T05:36:16.278Z,8.90
2022-11-26T05:41:18.557Z,8.90
2022-11-26T05:46:21.117Z,8.90
2022-11-26T05:51:23.570Z,8.90
2022-11-26T05:56:25.864Z,8.70
2022-11-26T06:01:28.276Z,8.40
2022-11-26T06:06:30.868Z,9.00
2022-11-26T06:11:33.165Z,9.00
2022-11-26T06:16:35.635Z,9.00
2022-11-26T06:21:38.416Z,9.00
2022-11-26T06:26:41.087Z,9.00
2022-11-26T06:31:43.474Z,9.00
2022-11-26T06:36:45.820Z,8.80
2022-11-26T06:41:48.143Z,8.60
2022-11-26T06:46:50.488Z,8.50
2022-11-26T06:51:53.897Z,8.80
2022-11-26T06:56:56.485Z,8.80
2022-11-26T07:01:58.928Z,8.60
2022-11-26T07:07:01.335Z,8.60
2022-11-26T07:12:04.022Z,8.60
2022-11-26T07:17:06.412Z,8.50
2022-11-26T07:22:08.868Z,8.30
2022-11-26T07:27:11.428Z,8.40
2022-11-26T07:32:13.861Z,8.50
2022-11-26T07:37:17.153Z,8.50
2022-11-26T07:42:19.680Z,8.60
2022-11-26T07:47:22.012Z,8.60
2022-11-26T07:52:24.298Z,8.60
2022-11-26T07:57:26.819Z,8.60
2022-11-26T08:02:29.128Z,8.80
2022-11-26T08:07:31.657Z,8.80
2022-11-26T08:12:34.413Z,8.90
2022-11-26T08:17:36.774Z,8.80
2022-11-26T08:22:39.410Z,8.90
2022-11-26T08:27:42.124Z,8.80
2022-11-26T08:32:44.455Z,8.80
2022-11-26T08:37:46.739Z,8.80
2022-11-26T08:42:49.026Z,8.80
2022-11-26T08:47:51.472Z,8.70
2022-11-26T08:52:53.762Z,8.60
2022-11-26T08:57:56.086Z,8.60
2022-11-26T09:02:58.499Z,8.60
2022-11-26T09:08:00.941Z,8.50
2022-11-26T09:13:03.414Z,8.70
2022-11-26T09:18:05.782Z,8.80
2022-11-26T09:23:08.118Z,9.00
2022-11-26T09:28:10.521Z,9.20
2022-11-26T09:33:12.884Z,9.30
2022-11-26T09:38:15.167Z,9.40
2022-11-26T09:43:33.741Z,9.60
2022-11-26T09:48:38.372Z,9.60
2022-11-26T09:53:45.496Z,9.60
2022-11-26T09:59:02.634Z,9.80
2022-11-26T10:04:08.237Z,9.90
2022-11-26T10:09:42.653Z,10.20
2022-11-26T10:15:03.150Z,10.20
2022-11-26T10:20:27.230Z,10.10
2022-11-26T10:25:34.702Z,10.20
2022-11-26T10:30:37.196Z,10.30
2022-11-26T10:35:44.369Z,10.30
2022-11-26T10:40:46.678Z,10.20
2022-11-26T10:45:56.141Z,10.40
2022-11-26T10:51:04.528Z,10.50
2022-11-26T10:56:14.011Z,10.60
2022-11-26T11:01:16.689Z,10.70
2022-11-26T11:06:18.986Z,10.90
2022-11-26T11:11:27.428Z,11.00
2022-11-26T11:16:46.765Z,11.20
2022-11-26T11:21:50.228Z,11.20
2022-11-26T11:26:56.998Z,11.60
2022-11-26T11:32:02.968Z,10.90
2022-11-26T11:37:15.196Z,11.00
2022-11-26T11:42:29.440Z,11.20
2022-11-26T11:47:44.013Z,11.20
2022-11-26T11:53:05.274Z,11.00
2022-11-26T11:58:44.636Z,10.90
2022-11-26T12:04:09.033Z,10.90
2022-11-26T12:09:25.311Z,11.00
2022-11-26T12:14:48.077Z,10.90
2022-11-26T12:19:57.716Z,11.00
2022-11-26T12:25:25.111Z,11.00
2022-11-26T12:30:46.851Z,11.00
2022-11-26T12:36:02.341Z,11.00
2022-11-26T12:41:22.794Z,11.30
2022-11-26T12:46:43.484Z,11.30
2022-11-26T12:51:51.163Z,11.10
2022-11-26T12:57:20.503Z,11.20
2022-11-26T13:02:29.400Z,11.30
2022-11-26T13:08:06.842Z,11.70
2022-11-26T13:13:35.269Z,11.90
2022-11-26T13:18:46.222Z,12.20
2022-11-26T13:24:04.321Z,12.20
2022-11-26T13:29:27.610Z,11.80
2022-11-26T13:34:42.422Z,12.00
2022-11-26T13:39:56.482Z,12.00
2022-11-26T13:45:20.267Z,12.10
2022-11-26T13:50:43.412Z,12.10
2022-11-26T13:55:59.475Z,12.10
2022-11-26T14:01:31.354Z,12.10
2022-11-26T14:06:34.736Z,12.10
2022-11-26T14:11:46.165Z,12.20
2022-11-26T14:17:08.843Z,12.20
2022-11-26T14:22:20.334Z,12.20
2022-11-26T14:27:36.382Z,12.20
2022-11-26T14:33:06.813Z,12.30
2022-11-26T14:38:24.581Z,12.20
2022-11-26T14:43:27.774Z,12.20
2022-11-26T14:48:30.815Z,12.00
2022-11-26T14:53:35.758Z,12.00
2022-11-26T14:58:49.658Z,12.00
2022-11-26T15:04:01.272Z,11.90
2022-11-26T15:09:17.039Z,11.90
2022-11-26T15:14:29.779Z,11.90
2022-11-26T15:19:36.289Z,11.90
2022-11-26T15:24:39.484Z,12.10
2022-11-26T15:29:49.464Z,11.80
2022-11-26T15:34:52.871Z,11.80
2022-11-26T15:40:10.484Z,11.70
2022-11-26T15:45:17.964Z,11.70
2022-11-26T15:50:27.440Z,11.60
2022-11-26T15:55:34.736Z,11.60
2022-11-26T16:00:41.881Z,11.60
2022-11-26T16:05:55.304Z,11.70
2022-11-26T16:11:04.607Z,11.90
2022-11-26T16:16:16.024Z,12.00
2022-11-26T16:21:24.170Z,12.10
2022-11-26T16:26:27.277Z,12.10
2022-11-26T16:31:29.937Z,12.10
2022-11-26T16:36:33.832Z,12.10
2022-11-26T16:41:36.289Z,12.20
2022-11-26T16:46:41.104Z,12.20
2022-11-26T16:51:43.806Z,12.10
2022-11-26T16:56:49.500Z,12.00
2022-11-26T17:01:54.321Z,12.10
2022-11-26T17:06:56.665Z,12.10
2022-11-26T17:11:58.920Z,12.00
2022-11-26T17:17:02.835Z,11.90
2022-11-26T17:22:06.126Z,11.90
2022-11-26T17:27:14.848Z,11.80
2022-11-26T17:32:19.809Z,11.90
2022-11-26T17:37:30.503Z,11.80
2022-11-26T17:42:36.842Z,11.90
2022-11-26T17:47:41.224Z,11.60
2022-11-26T17:52:44.872Z,11.50
2022-11-26T17:57:47.170Z,11.50
2022-11-26T18:02:49.488Z,11.30
2022-11-26T18:07:52.230Z,11.20
2022-11-26T18:12:55.252Z,11.20
2022-11-26T18:17:58.669Z,11.40
2022-11-26T18:23:03.246Z,11.40
2022-11-26T18:28:05.629Z,11.40
2022-11-26T18:33:09.028Z,11.20
2022-11-26T18:38:11.447Z,11.00
2022-11-26T18:43:13.850Z,11.00
2022-11-26T18:48:16.284Z,10.90
2022-11-26T18:53:18.623Z,10.90
2022-11-26T18:58:21.400Z,10.80
2022-11-26T19:03:24.797Z,10.60
2022-11-26T19:08:27.121Z,10.60
2022-11-26T19:13:29.409Z,10.70
2022-11-26T19:18:31.845Z,10.50
2022-11-26T19:23:34.453Z,10.50
2022-11-26T19:28:36.775Z,11.70
2022-11-26T19:33:40.098Z,10.50
2022-11-26T19:38:43.458Z,10.40
2022-11-26T19:43:45.835Z,10.50
2022-11-26T19:48:50.238Z,10.40
2022-11-26T19:53:54.439Z,10.30
2022-11-26T19:59:01.818Z,10.10
2022-11-26T20:04:06.890Z,10.20
2022-11-26T20:09:12.486Z,11.20
2022-11-26T20:14:15.214Z,10.30
2022-11-26T20:19:18.544Z,10.30
2022-11-26T20:24:20.862Z,10.30
2022-11-26T20:29:23.776Z,10.50
2022-11-26T20:34:26.487Z,10.50
2022-11-26T20:39:29.716Z,10.30
2022-11-26T20:44:32.009Z,10.20
2022-11-26T20:49:37.782Z,10.30
2022-11-26T20:54:43.519Z,10.30
2022-11-26T20:59:46.698Z,10.20
2022-11-26T21:04:49.070Z,10.20
2022-11-26T21:09:52.598Z,10.10
2022-11-26T21:14:55.393Z,9.90
2022-11-26T21:19:57.771Z,9.70
2022-11-26T21:25:00.089Z,9.60
2022-11-26T21:30:02.954Z,9.50
2022-11-26T21:35:05.674Z,9.40
2022-11-26T21:40:08.790Z,9.10
2022-11-26T21:45:11.339Z,9.20
2022-11-26T21:50:13.716Z,9.30
2022-11-26T21:55:16.181Z,9.30
2022-11-26T22:00:18.880Z,9.20
2022-11-26T22:05:21.258Z,8.70
2022-11-26T22:10:24.445Z,8.50
2022-11-26T22:15:26.787Z,8.60
2022-11-26T22:20:29.145Z,8.60
2022-11-26T22:25:34.634Z,8.60
2022-11-26T22:30:37.836Z,7.70
2022-11-26T22:35:40.140Z,8.50
2022-11-26T22:40:42.620Z,7.90
2022-11-26T22:45:44.951Z,7.90
2022-11-26T22:50:52.691Z,8.20
2022-11-26T22:55:57.881Z,7.90
2022-11-26T23:01:07.787Z,7.50
2022-11-26T23:06:11.777Z,7.40
2022-11-26T23:11:20.321Z,7.40
2022-11-26T23:16:24.896Z,7.20
2022-11-26T23:21:30.324Z,6.40
2022-11-26T23:26:34.726Z,6.70
2022-11-26T23:31:39.442Z,6.90
2022-11-26T23:36:42.159Z,6.70
2022-11-26T23:41:44.581Z,6.40
2022-11-26T23:46:46.994Z,6.10
2022-11-26T23:51:49.312Z,6.10
2022-11-26T23:56:51.618Z,6.20
